sensor_id;sensor_type;location;lat;lon;timestamp;P1;durP1;ratioP1;P2;durP2;ratioP2
42168;SDS011;27838;43.858;25.974;2024-02-15T00:01:47;10.30;;;6.40;;
42168;SDS011;27838;43.858;25.974;2024-02-15T00:04:14;13.02;;;7.20;;
42168;SDS011;27838;43.858;25.974;2024-02-15T00:06:42;11.05;;;7.05;;
42168;SDS011;27838;43.858;25.974;2024-02-15T00:09:08;10.60;;;7.07;;
42168;SDS011;27838;43.858;25.974;2024-02-15T00:11:35;12.88;;;7.47;;
42168;SDS011;27838;43.858;25.974;2024-02-15T00:14:04;13.75;;;6.82;;
42168;SDS011;27838;43.858;25.974;2024-02-15T00:16:32;11.05;;;6.70;;
42168;SDS011;27838;43.858;25.974;2024-02-15T00:19:00;11.98;;;7.10;;
42168;SDS011;27838;43.858;25.974;2024-02-15T00:21:27;9.85;;;7.10;;
42168;SDS011;27838;43.858;25.974;2024-02-15T00:23:53;15.18;;;7.10;;
42168;SDS011;27838;43.858;25.974;2024-02-15T00:26:21;9.63;;;6.40;;
42168;SDS011;27838;43.858;25.974;2024-02-15T00:28:48;11.32;;;7.82;;
42168;SDS011;27838;43.858;25.974;2024-02-15T00:31:14;12.73;;;7.68;;
42168;SDS011;27838;43.858;25.974;2024-02-15T00:33:41;13.65;;;7.72;;
42168;SDS011;27838;43.858;25.974;2024-02-15T00:36:08;10.98;;;7.57;;
42168;SDS011;27838;43.858;25.974;2024-02-15T00:38:36;10.25;;;7.20;;
42168;SDS011;27838;43.858;25.974;2024-02-15T00:41:03;9.93;;;7.05;;
42168;SDS011;27838;43.858;25.974;2024-02-15T00:43:31;11.98;;;6.85;;
42168;SDS011;27838;43.858;25.974;2024-02-15T00:46:01;12.25;;;7.65;;
42168;SDS011;27838;43.858;25.974;2024-02-15T00:48:28;11.50;;;6.70;;
42168;SDS011;27838;43.858;25.974;2024-02-15T00:50:55;11.63;;;6.72;;
42168;SDS011;27838;43.858;25.974;2024-02-15T00:53:23;9.65;;;7.20;;
42168;SDS011;27838;43.858;25.974;2024-02-15T00:55:49;11.15;;;7.63;;
42168;SDS011;27838;43.858;25.974;2024-02-15T00:58:16;10.88;;;7.05;;
42168;SDS011;27838;43.858;25.974;2024-02-15T01:00:42;10.55;;;6.75;;
42168;SDS011;27838;43.858;25.974;2024-02-15T01:03:09;12.13;;;7.70;;
42168;SDS011;27838;43.858;25.974;2024-02-15T01:05:35;12.48;;;7.63;;
42168;SDS011;27838;43.858;25.974;2024-02-15T01:08:02;13.43;;;7.53;;
42168;SDS011;27838;43.858;25.974;2024-02-15T01:10:28;11.40;;;7.13;;
42168;SDS011;27838;43.858;25.974;2024-02-15T01:12:55;10.30;;;7.07;;
42168;SDS011;27838;43.858;25.974;2024-02-15T01:15:21;10.68;;;6.90;;
42168;SDS011;27838;43.858;25.974;2024-02-15T01:17:48;11.63;;;7.22;;
42168;SDS011;27838;43.858;25.974;2024-02-15T01:20:15;12.77;;;6.78;;
42168;SDS011;27838;43.858;25.974;2024-02-15T01:22:41;12.85;;;7.10;;
42168;SDS011;27838;43.858;25.974;2024-02-15T01:25:09;13.85;;;7.72;;
42168;SDS011;27838;43.858;25.974;2024-02-15T01:27:36;10.55;;;7.35;;
42168;SDS011;27838;43.858;25.974;2024-02-15T01:30:02;10.00;;;6.30;;
42168;SDS011;27838;43.858;25.974;2024-02-15T01:32:30;9.02;;;6.70;;
42168;SDS011;27838;43.858;25.974;2024-02-15T01:34:57;12.00;;;7.32;;
42168;SDS011;27838;43.858;25.974;2024-02-15T01:37:23;13.70;;;7.38;;
42168;SDS011;27838;43.858;25.974;2024-02-15T01:39:50;14.77;;;7.05;;
42168;SDS011;27838;43.858;25.974;2024-02-15T01:42:17;10.80;;;6.80;;
42168;SDS011;27838;43.858;25.974;2024-02-15T01:44:44;10.65;;;7.32;;
42168;SDS011;27838;43.858;25.974;2024-02-15T01:47:12;11.60;;;7.55;;
42168;SDS011;27838;43.858;25.974;2024-02-15T01:49:40;12.13;;;8.30;;
42168;SDS011;27838;43.858;25.974;2024-02-15T01:52:07;11.95;;;7.55;;
42168;SDS011;27838;43.858;25.974;2024-02-15T01:54:34;12.40;;;8.85;;
42168;SDS011;27838;43.858;25.974;2024-02-15T01:57:04;10.23;;;6.93;;
42168;SDS011;27838;43.858;25.974;2024-02-15T01:59:31;11.70;;;7.50;;
42168;SDS011;27838;43.858;25.974;2024-02-15T02:01:58;11.90;;;7.57;;
42168;SDS011;27838;43.858;25.974;2024-02-15T02:04:24;10.00;;;7.55;;
42168;SDS011;27838;43.858;25.974;2024-02-15T02:06:51;11.98;;;7.57;;
42168;SDS011;27838;43.858;25.974;2024-02-15T02:09:24;10.88;;;7.32;;
42168;SDS011;27838;43.858;25.974;2024-02-15T02:11:52;8.60;;;6.75;;
42168;SDS011;27838;43.858;25.974;2024-02-15T02:14:19;10.18;;;7.53;;
42168;SDS011;27838;43.858;25.974;2024-02-15T02:16:46;11.75;;;7.22;;
42168;SDS011;27838;43.858;25.974;2024-02-15T02:19:12;11.45;;;7.28;;
42168;SDS011;27838;43.858;25.974;2024-02-15T02:21:39;12.70;;;7.35;;
42168;SDS011;27838;43.858;25.974;2024-02-15T02:24:09;15.60;;;8.02;;
42168;SDS011;27838;43.858;25.974;2024-02-15T02:26:39;10.30;;;7.32;;
42168;SDS011;27838;43.858;25.974;2024-02-15T02:29:06;11.55;;;8.10;;
42168;SDS011;27838;43.858;25.974;2024-02-15T02:31:36;11.68;;;7.25;;
42168;SDS011;27838;43.858;25.974;2024-02-15T02:34:02;10.25;;;7.47;;
42168;SDS011;27838;43.858;25.974;2024-02-15T02:36:31;12.05;;;8.27;;
42168;SDS011;27838;43.858;25.974;2024-02-15T02:38:58;12.35;;;7.40;;
42168;SDS011;27838;43.858;25.974;2024-02-15T02:41:28;10.07;;;6.90;;
42168;SDS011;27838;43.858;25.974;2024-02-15T02:43:55;10.48;;;7.65;;
42168;SDS011;27838;43.858;25.974;2024-02-15T02:46:22;9.93;;;7.22;;
42168;SDS011;27838;43.858;25.974;2024-02-15T02:48:49;12.38;;;7.40;;
42168;SDS011;27838;43.858;25.974;2024-02-15T02:51:17;10.95;;;6.90;;
42168;SDS011;27838;43.858;25.974;2024-02-15T02:53:43;11.13;;;7.10;;
42168;SDS011;27838;43.858;25.974;2024-02-15T02:56:10;11.70;;;8.10;;
42168;SDS011;27838;43.858;25.974;2024-02-15T02:58:38;11.05;;;7.03;;
42168;SDS011;27838;43.858;25.974;2024-02-15T03:01:07;13.35;;;7.45;;
42168;SDS011;27838;43.858;25.974;2024-02-15T03:03:34;11.27;;;7.45;;
42168;SDS011;27838;43.858;25.974;2024-02-15T03:06:00;13.70;;;7.32;;
42168;SDS011;27838;43.858;25.974;2024-02-15T03:08:27;13.48;;;8.07;;
42168;SDS011;27838;43.858;25.974;2024-02-15T03:10:54;14.55;;;7.28;;
42168;SDS011;27838;43.858;25.974;2024-02-15T03:13:20;11.80;;;7.25;;
42168;SDS011;27838;43.858;25.974;2024-02-15T03:15:48;13.60;;;7.53;;
42168;SDS011;27838;43.858;25.974;2024-02-15T03:18:16;12.43;;;7.65;;
42168;SDS011;27838;43.858;25.974;2024-02-15T03:20:42;11.95;;;7.05;;
42168;SDS011;27838;43.858;25.974;2024-02-15T03:23:09;11.65;;;7.72;;
42168;SDS011;27838;43.858;25.974;2024-02-15T03:25:36;12.20;;;7.38;;
42168;SDS011;27838;43.858;25.974;2024-02-15T03:28:03;11.20;;;7.80;;
42168;SDS011;27838;43.858;25.974;2024-02-15T03:30:31;11.07;;;7.75;;
42168;SDS011;27838;43.858;25.974;2024-02-15T03:32:59;11.57;;;7.68;;
42168;SDS011;27838;43.858;25.974;2024-02-15T03:35:26;13.50;;;8.13;;
42168;SDS011;27838;43.858;25.974;2024-02-15T03:37:53;12.82;;;8.15;;
42168;SDS011;27838;43.858;25.974;2024-02-15T03:40:21;12.80;;;7.65;;
42168;SDS011;27838;43.858;25.974;2024-02-15T03:42:52;12.38;;;7.78;;
42168;SDS011;27838;43.858;25.974;2024-02-15T03:45:19;13.02;;;7.60;;
42168;SDS011;27838;43.858;25.974;2024-02-15T03:47:50;13.00;;;7.72;;
42168;SDS011;27838;43.858;25.974;2024-02-15T03:50:17;10.80;;;7.43;;
42168;SDS011;27838;43.858;25.974;2024-02-15T03:52:46;13.23;;;7.70;;
42168;SDS011;27838;43.858;25.974;2024-02-15T03:55:13;10.40;;;6.97;;
42168;SDS011;27838;43.858;25.974;2024-02-15T03:57:40;11.85;;;7.80;;
42168;SDS011;27838;43.858;25.974;2024-02-15T04:00:08;12.20;;;8.43;;
42168;SDS011;27838;43.858;25.974;2024-02-15T04:02:37;14.95;;;8.45;;
42168;SDS011;27838;43.858;25.974;2024-02-15T04:05:05;13.18;;;8.85;;
42168;SDS011;27838;43.858;25.974;2024-02-15T04:07:32;13.00;;;8.18;;
42168;SDS011;27838;43.858;25.974;2024-02-15T04:09:59;12.93;;;8.65;;
42168;SDS011;27838;43.858;25.974;2024-02-15T04:12:26;13.05;;;8.55;;
42168;SDS011;27838;43.858;25.974;2024-02-15T04:14:53;15.73;;;9.15;;
42168;SDS011;27838;43.858;25.974;2024-02-15T04:17:21;13.88;;;8.52;;
42168;SDS011;27838;43.858;25.974;2024-02-15T04:19:48;15.50;;;8.80;;
42168;SDS011;27838;43.858;25.974;2024-02-15T04:22:16;15.68;;;8.60;;
42168;SDS011;27838;43.858;25.974;2024-02-15T04:24:43;17.23;;;8.48;;
42168;SDS011;27838;43.858;25.974;2024-02-15T04:27:10;13.98;;;8.43;;
42168;SDS011;27838;43.858;25.974;2024-02-15T04:29:38;20.25;;;9.05;;
42168;SDS011;27838;43.858;25.974;2024-02-15T04:32:09;16.20;;;9.02;;
42168;SDS011;27838;43.858;25.974;2024-02-15T04:34:36;14.65;;;9.10;;
42168;SDS011;27838;43.858;25.974;2024-02-15T04:37:03;16.60;;;9.65;;
42168;SDS011;27838;43.858;25.974;2024-02-15T04:39:33;14.80;;;8.85;;
42168;SDS011;27838;43.858;25.974;2024-02-15T04:42:01;14.07;;;8.90;;
42168;SDS011;27838;43.858;25.974;2024-02-15T04:44:28;17.00;;;9.40;;
42168;SDS011;27838;43.858;25.974;2024-02-15T04:46:54;15.93;;;9.57;;
42168;SDS011;27838;43.858;25.974;2024-02-15T04:49:21;16.23;;;9.48;;
42168;SDS011;27838;43.858;25.974;2024-02-15T04:51:48;16.13;;;9.73;;
42168;SDS011;27838;43.858;25.974;2024-02-15T04:54:15;15.95;;;9.55;;
42168;SDS011;27838;43.858;25.974;2024-02-15T04:56:43;18.27;;;10.30;;
42168;SDS011;27838;43.858;25.974;2024-02-15T04:59:11;18.10;;;10.48;;
42168;SDS011;27838;43.858;25.974;2024-02-15T05:01:40;14.32;;;9.60;;
42168;SDS011;27838;43.858;25.974;2024-02-15T05:04:11;19.88;;;10.50;;
42168;SDS011;27838;43.858;25.974;2024-02-15T05:06:39;15.50;;;10.07;;
42168;SDS011;27838;43.858;25.974;2024-02-15T05:09:06;15.75;;;10.18;;
42168;SDS011;27838;43.858;25.974;2024-02-15T05:11:35;15.43;;;9.82;;
42168;SDS011;27838;43.858;25.974;2024-02-15T05:14:06;18.00;;;10.40;;
42168;SDS011;27838;43.858;25.974;2024-02-15T05:16:36;17.30;;;10.82;;
42168;SDS011;27838;43.858;25.974;2024-02-15T05:19:07;16.35;;;9.75;;
42168;SDS011;27838;43.858;25.974;2024-02-15T05:21:36;22.98;;;13.68;;
42168;SDS011;27838;43.858;25.974;2024-02-15T05:24:03;15.02;;;10.65;;
42168;SDS011;27838;43.858;25.974;2024-02-15T05:26:30;18.17;;;10.50;;
42168;SDS011;27838;43.858;25.974;2024-02-15T05:28:57;17.10;;;11.80;;
42168;SDS011;27838;43.858;25.974;2024-02-15T05:31:23;22.45;;;14.30;;
42168;SDS011;27838;43.858;25.974;2024-02-15T05:33:51;24.33;;;13.52;;
42168;SDS011;27838;43.858;25.974;2024-02-15T05:36:19;21.80;;;12.00;;
42168;SDS011;27838;43.858;25.974;2024-02-15T05:38:50;19.27;;;12.30;;
42168;SDS011;27838;43.858;25.974;2024-02-15T05:41:18;17.80;;;12.05;;
42168;SDS011;27838;43.858;25.974;2024-02-15T05:43:45;17.88;;;11.70;;
42168;SDS011;27838;43.858;25.974;2024-02-15T05:46:13;24.27;;;13.40;;
42168;SDS011;27838;43.858;25.974;2024-02-15T05:48:40;20.95;;;13.25;;
42168;SDS011;27838;43.858;25.974;2024-02-15T05:51:07;25.58;;;14.48;;
42168;SDS011;27838;43.858;25.974;2024-02-15T05:53:34;25.85;;;15.00;;
42168;SDS011;27838;43.858;25.974;2024-02-15T05:56:02;26.63;;;16.02;;
42168;SDS011;27838;43.858;25.974;2024-02-15T05:58:30;25.60;;;15.48;;
42168;SDS011;27838;43.858;25.974;2024-02-15T06:00:57;20.52;;;12.80;;
42168;SDS011;27838;43.858;25.974;2024-02-15T06:03:29;27.83;;;17.58;;
42168;SDS011;27838;43.858;25.974;2024-02-15T06:06:01;34.28;;;18.73;;
42168;SDS011;27838;43.858;25.974;2024-02-15T06:08:32;30.58;;;18.63;;
42168;SDS011;27838;43.858;25.974;2024-02-15T06:10:59;29.15;;;15.55;;
42168;SDS011;27838;43.858;25.974;2024-02-15T06:13:26;26.02;;;16.60;;
42168;SDS011;27838;43.858;25.974;2024-02-15T06:15:53;29.45;;;16.52;;
42168;SDS011;27838;43.858;25.974;2024-02-15T06:20:49;32.03;;;18.40;;
42168;SDS011;27838;43.858;25.974;2024-02-15T06:23:16;30.73;;;19.60;;
42168;SDS011;27838;43.858;25.974;2024-02-15T06:25:43;35.08;;;17.77;;
42168;SDS011;27838;43.858;25.974;2024-02-15T06:28:13;28.40;;;16.13;;
42168;SDS011;27838;43.858;25.974;2024-02-15T06:31:06;33.05;;;16.27;;
42168;SDS011;27838;43.858;25.974;2024-02-15T06:33:53;26.60;;;16.48;;
42168;SDS011;27838;43.858;25.974;2024-02-15T06:36:46;22.92;;;15.02;;
42168;SDS011;27838;43.858;25.974;2024-02-15T06:39:31;25.23;;;14.38;;
42168;SDS011;27838;43.858;25.974;2024-02-15T06:42:07;23.15;;;13.32;;
42168;SDS011;27838;43.858;25.974;2024-02-15T06:44:35;23.85;;;13.18;;
42168;SDS011;27838;43.858;25.974;2024-02-15T06:47:02;19.10;;;10.75;;
42168;SDS011;27838;43.858;25.974;2024-02-15T06:49:28;19.35;;;10.82;;
42168;SDS011;27838;43.858;25.974;2024-02-15T06:51:55;25.20;;;11.82;;
42168;SDS011;27838;43.858;25.974;2024-02-15T06:54:24;19.90;;;12.48;;
42168;SDS011;27838;43.858;25.974;2024-02-15T06:56:50;19.95;;;11.77;;
42168;SDS011;27838;43.858;25.974;2024-02-15T06:59:19;12.95;;;8.35;;
42168;SDS011;27838;43.858;25.974;2024-02-15T07:01:48;12.90;;;8.65;;
42168;SDS011;27838;43.858;25.974;2024-02-15T07:04:18;16.90;;;9.90;;
42168;SDS011;27838;43.858;25.974;2024-02-15T07:06:45;17.17;;;8.10;;
42168;SDS011;27838;43.858;25.974;2024-02-15T07:09:13;21.00;;;12.80;;
42168;SDS011;27838;43.858;25.974;2024-02-15T07:11:42;14.63;;;8.27;;
42168;SDS011;27838;43.858;25.974;2024-02-15T07:14:09;22.63;;;9.73;;
42168;SDS011;27838;43.858;25.974;2024-02-15T07:16:36;16.88;;;7.75;;
42168;SDS011;27838;43.858;25.974;2024-02-15T07:19:03;14.15;;;6.53;;
42168;SDS011;27838;43.858;25.974;2024-02-15T07:21:30;11.55;;;6.35;;
42168;SDS011;27838;43.858;25.974;2024-02-15T07:23:57;16.10;;;6.70;;
42168;SDS011;27838;43.858;25.974;2024-02-15T07:26:24;14.27;;;7.10;;
42168;SDS011;27838;43.858;25.974;2024-02-15T07:28:51;10.18;;;6.43;;
42168;SDS011;27838;43.858;25.974;2024-02-15T07:31:19;10.50;;;6.63;;
42168;SDS011;27838;43.858;25.974;2024-02-15T07:33:47;12.55;;;6.82;;
42168;SDS011;27838;43.858;25.974;2024-02-15T07:36:17;15.10;;;7.75;;
42168;SDS011;27838;43.858;25.974;2024-02-15T07:38:46;14.25;;;7.82;;
42168;SDS011;27838;43.858;25.974;2024-02-15T07:41:17;14.40;;;8.23;;
42168;SDS011;27838;43.858;25.974;2024-02-15T07:43:44;24.60;;;15.65;;
42168;SDS011;27838;43.858;25.974;2024-02-15T07:46:12;18.63;;;7.40;;
42168;SDS011;27838;43.858;25.974;2024-02-15T07:48:41;28.85;;;16.80;;
42168;SDS011;27838;43.858;25.974;2024-02-15T07:51:15;14.13;;;7.38;;
42168;SDS011;27838;43.858;25.974;2024-02-15T07:53:43;23.55;;;12.40;;
42168;SDS011;27838;43.858;25.974;2024-02-15T07:56:10;12.50;;;7.80;;
42168;SDS011;27838;43.858;25.974;2024-02-15T07:58:41;10.25;;;6.68;;
42168;SDS011;27838;43.858;25.974;2024-02-15T08:01:12;12.50;;;7.13;;
42168;SDS011;27838;43.858;25.974;2024-02-15T08:03:41;16.65;;;8.18;;
42168;SDS011;27838;43.858;25.974;2024-02-15T08:06:13;9.65;;;6.93;;
42168;SDS011;27838;43.858;25.974;2024-02-15T08:08:44;13.93;;;6.90;;
42168;SDS011;27838;43.858;25.974;2024-02-15T08:11:13;9.05;;;5.85;;
42168;SDS011;27838;43.858;25.974;2024-02-15T08:13:43;10.95;;;6.10;;
42168;SDS011;27838;43.858;25.974;2024-02-15T08:16:23;10.13;;;6.43;;
42168;SDS011;27838;43.858;25.974;2024-02-15T08:18:52;11.95;;;7.25;;
42168;SDS011;27838;43.858;25.974;2024-02-15T08:21:32;14.52;;;7.45;;
42168;SDS011;27838;43.858;25.974;2024-02-15T08:24:04;19.27;;;8.43;;
42168;SDS011;27838;43.858;25.974;2024-02-15T08:26:40;18.80;;;7.55;;
42168;SDS011;27838;43.858;25.974;2024-02-15T08:29:07;11.88;;;6.57;;
42168;SDS011;27838;43.858;25.974;2024-02-15T08:31:35;9.70;;;6.28;;
42168;SDS011;27838;43.858;25.974;2024-02-15T08:34:02;13.32;;;6.65;;
42168;SDS011;27838;43.858;25.974;2024-02-15T08:36:30;10.63;;;6.53;;
42168;SDS011;27838;43.858;25.974;2024-02-15T08:38:57;12.43;;;6.28;;
42168;SDS011;27838;43.858;25.974;2024-02-15T08:41:25;11.98;;;6.90;;
42168;SDS011;27838;43.858;25.974;2024-02-15T08:43:52;16.88;;;7.80;;
42168;SDS011;27838;43.858;25.974;2024-02-15T08:46:21;11.77;;;6.43;;
42168;SDS011;27838;43.858;25.974;2024-02-15T08:48:50;17.77;;;7.65;;
42168;SDS011;27838;43.858;25.974;2024-02-15T08:51:16;15.75;;;7.88;;
42168;SDS011;27838;43.858;25.974;2024-02-15T08:53:45;16.00;;;8.18;;
42168;SDS011;27838;43.858;25.974;2024-02-15T08:56:12;12.27;;;6.45;;
42168;SDS011;27838;43.858;25.974;2024-02-15T08:58:39;15.15;;;7.75;;
42168;SDS011;27838;43.858;25.974;2024-02-15T09:01:07;19.77;;;7.40;;
42168;SDS011;27838;43.858;25.974;2024-02-15T09:03:34;12.10;;;6.93;;
42168;SDS011;27838;43.858;25.974;2024-02-15T09:06:01;16.17;;;7.55;;
42168;SDS011;27838;43.858;25.974;2024-02-15T09:08:29;15.07;;;6.00;;
42168;SDS011;27838;43.858;25.974;2024-02-15T09:10:55;15.18;;;7.32;;
42168;SDS011;27838;43.858;25.974;2024-02-15T09:13:23;11.85;;;6.53;;
42168;SDS011;27838;43.858;25.974;2024-02-15T09:15:49;14.88;;;6.78;;
42168;SDS011;27838;43.858;25.974;2024-02-15T09:18:16;12.27;;;6.18;;
42168;SDS011;27838;43.858;25.974;2024-02-15T09:20:43;13.98;;;6.80;;
42168;SDS011;27838;43.858;25.974;2024-02-15T09:23:14;11.20;;;7.70;;
42168;SDS011;27838;43.858;25.974;2024-02-15T09:25:41;28.85;;;7.38;;
42168;SDS011;27838;43.858;25.974;2024-02-15T09:28:09;18.35;;;7.50;;
42168;SDS011;27838;43.858;25.974;2024-02-15T09:30:36;13.82;;;6.90;;
42168;SDS011;27838;43.858;25.974;2024-02-15T09:33:03;9.35;;;6.22;;
42168;SDS011;27838;43.858;25.974;2024-02-15T09:35:30;17.85;;;7.03;;
42168;SDS011;27838;43.858;25.974;2024-02-15T09:37:57;16.83;;;6.43;;
42168;SDS011;27838;43.858;25.974;2024-02-15T09:40:23;16.58;;;7.38;;
42168;SDS011;27838;43.858;25.974;2024-02-15T09:42:51;18.58;;;8.38;;
42168;SDS011;27838;43.858;25.974;2024-02-15T09:45:18;13.00;;;6.80;;
42168;SDS011;27838;43.858;25.974;2024-02-15T09:47:46;18.10;;;7.72;;
42168;SDS011;27838;43.858;25.974;2024-02-15T09:50:15;17.13;;;7.25;;
42168;SDS011;27838;43.858;25.974;2024-02-15T09:52:49;11.60;;;7.25;;
42168;SDS011;27838;43.858;25.974;2024-02-15T09:55:17;26.92;;;8.25;;
42168;SDS011;27838;43.858;25.974;2024-02-15T09:57:45;13.10;;;7.20;;
42168;SDS011;27838;43.858;25.974;2024-02-15T10:00:12;16.52;;;7.13;;
42168;SDS011;27838;43.858;25.974;2024-02-15T10:02:40;23.02;;;7.30;;
42168;SDS011;27838;43.858;25.974;2024-02-15T10:05:09;22.60;;;8.15;;
42168;SDS011;27838;43.858;25.974;2024-02-15T10:07:38;12.55;;;6.65;;
42168;SDS011;27838;43.858;25.974;2024-02-15T10:12:42;14.10;;;6.95;;
42168;SDS011;27838;43.858;25.974;2024-02-15T10:15:09;15.32;;;7.53;;
42168;SDS011;27838;43.858;25.974;2024-02-15T10:17:36;11.95;;;7.75;;
42168;SDS011;27838;43.858;25.974;2024-02-15T10:20:03;21.13;;;8.55;;
42168;SDS011;27838;43.858;25.974;2024-02-15T10:22:30;13.93;;;7.82;;
42168;SDS011;27838;43.858;25.974;2024-02-15T10:25:12;14.95;;;8.30;;
42168;SDS011;27838;43.858;25.974;2024-02-15T10:27:40;15.20;;;7.50;;
42168;SDS011;27838;43.858;25.974;2024-02-15T10:30:17;14.60;;;8.55;;
42168;SDS011;27838;43.858;25.974;2024-02-15T10:32:45;12.32;;;7.85;;
42168;SDS011;27838;43.858;25.974;2024-02-15T10:35:22;13.32;;;6.90;;
42168;SDS011;27838;43.858;25.974;2024-02-15T10:37:49;23.95;;;8.27;;
42168;SDS011;27838;43.858;25.974;2024-02-15T10:40:18;16.90;;;8.07;;
42168;SDS011;27838;43.858;25.974;2024-02-15T10:42:46;16.38;;;7.88;;
42168;SDS011;27838;43.858;25.974;2024-02-15T10:45:14;14.95;;;7.38;;
42168;SDS011;27838;43.858;25.974;2024-02-15T10:47:43;13.68;;;7.70;;
42168;SDS011;27838;43.858;25.974;2024-02-15T10:50:12;15.68;;;8.18;;
42168;SDS011;27838;43.858;25.974;2024-02-15T10:52:43;20.05;;;8.63;;
42168;SDS011;27838;43.858;25.974;2024-02-15T10:55:22;18.75;;;7.43;;
42168;SDS011;27838;43.858;25.974;2024-02-15T10:58:05;10.20;;;7.03;;
42168;SDS011;27838;43.858;25.974;2024-02-15T11:00:32;13.45;;;7.82;;
42168;SDS011;27838;43.858;25.974;2024-02-15T11:03:03;12.13;;;7.05;;
42168;SDS011;27838;43.858;25.974;2024-02-15T11:05:31;13.50;;;7.25;;
42168;SDS011;27838;43.858;25.974;2024-02-15T11:08:06;9.77;;;6.57;;
42168;SDS011;27838;43.858;25.974;2024-02-15T11:10:37;14.83;;;7.90;;
42168;SDS011;27838;43.858;25.974;2024-02-15T11:13:08;12.68;;;6.55;;
42168;SDS011;27838;43.858;25.974;2024-02-15T11:15:40;11.73;;;6.63;;
42168;SDS011;27838;43.858;25.974;2024-02-15T11:18:10;12.32;;;8.02;;
42168;SDS011;27838;43.858;25.974;2024-02-15T11:23:03;18.77;;;7.32;;
42168;SDS011;27838;43.858;25.974;2024-02-15T11:25:34;12.45;;;6.85;;
42168;SDS011;27838;43.858;25.974;2024-02-15T11:30:46;13.90;;;8.00;;
42168;SDS011;27838;43.858;25.974;2024-02-15T11:33:30;12.40;;;8.02;;
42168;SDS011;27838;43.858;25.974;2024-02-15T11:36:06;13.15;;;8.18;;
42168;SDS011;27838;43.858;25.974;2024-02-15T11:38:33;13.18;;;8.32;;
42168;SDS011;27838;43.858;25.974;2024-02-15T11:41:04;9.57;;;7.22;;
42168;SDS011;27838;43.858;25.974;2024-02-15T11:46:13;8.65;;;6.00;;
42168;SDS011;27838;43.858;25.974;2024-02-15T11:48:41;13.02;;;6.60;;
42168;SDS011;27838;43.858;25.974;2024-02-15T11:51:08;17.55;;;7.10;;
42168;SDS011;27838;43.858;25.974;2024-02-15T11:53:36;19.00;;;6.82;;
42168;SDS011;27838;43.858;25.974;2024-02-15T11:56:04;14.80;;;6.07;;
42168;SDS011;27838;43.858;25.974;2024-02-15T11:58:34;13.80;;;6.18;;
42168;SDS011;27838;43.858;25.974;2024-02-15T12:01:17;6.50;;;5.28;;
42168;SDS011;27838;43.858;25.974;2024-02-15T12:04:01;6.78;;;5.07;;
42168;SDS011;27838;43.858;25.974;2024-02-15T12:06:46;9.00;;;5.88;;
42168;SDS011;27838;43.858;25.974;2024-02-15T12:09:30;11.60;;;5.90;;
42168;SDS011;27838;43.858;25.974;2024-02-15T12:12:14;12.60;;;5.55;;
42168;SDS011;27838;43.858;25.974;2024-02-15T12:15:03;9.70;;;6.20;;
42168;SDS011;27838;43.858;25.974;2024-02-15T12:17:47;8.50;;;5.70;;
42168;SDS011;27838;43.858;25.974;2024-02-15T12:20:32;10.52;;;7.10;;
42168;SDS011;27838;43.858;25.974;2024-02-15T12:22:59;9.95;;;6.22;;
42168;SDS011;27838;43.858;25.974;2024-02-15T12:25:26;10.95;;;6.60;;
42168;SDS011;27838;43.858;25.974;2024-02-15T12:27:54;10.05;;;6.47;;
42168;SDS011;27838;43.858;25.974;2024-02-15T12:30:22;8.82;;;6.30;;
42168;SDS011;27838;43.858;25.974;2024-02-15T12:32:50;10.50;;;5.47;;
42168;SDS011;27838;43.858;25.974;2024-02-15T12:35:21;11.13;;;6.50;;
42168;SDS011;27838;43.858;25.974;2024-02-15T12:40:30;18.75;;;6.18;;
42168;SDS011;27838;43.858;25.974;2024-02-15T12:42:58;14.10;;;6.93;;
42168;SDS011;27838;43.858;25.974;2024-02-15T12:45:25;12.80;;;7.50;;
42168;SDS011;27838;43.858;25.974;2024-02-15T12:47:55;21.40;;;6.43;;
42168;SDS011;27838;43.858;25.974;2024-02-15T12:50:28;9.35;;;6.40;;
42168;SDS011;27838;43.858;25.974;2024-02-15T12:52:56;10.20;;;6.35;;
42168;SDS011;27838;43.858;25.974;2024-02-15T12:55:28;11.90;;;7.53;;
42168;SDS011;27838;43.858;25.974;2024-02-15T13:00:29;20.90;;;7.40;;
42168;SDS011;27838;43.858;25.974;2024-02-15T13:02:58;13.23;;;7.35;;
42168;SDS011;27838;43.858;25.974;2024-02-15T13:05:28;11.38;;;6.90;;
42168;SDS011;27838;43.858;25.974;2024-02-15T13:07:56;11.13;;;6.57;;
42168;SDS011;27838;43.858;25.974;2024-02-15T13:10:23;16.38;;;6.32;;
42168;SDS011;27838;43.858;25.974;2024-02-15T13:12:53;7.25;;;5.18;;
42168;SDS011;27838;43.858;25.974;2024-02-15T13:15:21;8.63;;;5.57;;
42168;SDS011;27838;43.858;25.974;2024-02-15T13:17:52;10.43;;;4.95;;
42168;SDS011;27838;43.858;25.974;2024-02-15T13:20:20;10.07;;;5.30;;
42168;SDS011;27838;43.858;25.974;2024-02-15T13:22:57;12.77;;;6.20;;
42168;SDS011;27838;43.858;25.974;2024-02-15T13:25:27;7.63;;;5.65;;
42168;SDS011;27838;43.858;25.974;2024-02-15T13:27:54;16.40;;;5.28;;
42168;SDS011;27838;43.858;25.974;2024-02-15T13:30:21;12.02;;;5.70;;
42168;SDS011;27838;43.858;25.974;2024-02-15T13:32:52;14.35;;;5.35;;
42168;SDS011;27838;43.858;25.974;2024-02-15T13:35:19;12.63;;;6.03;;
42168;SDS011;27838;43.858;25.974;2024-02-15T13:40:17;12.07;;;6.03;;
42168;SDS011;27838;43.858;25.974;2024-02-15T13:42:48;14.97;;;6.33;;
42168;SDS011;27838;43.858;25.974;2024-02-15T13:45:21;8.77;;;5.28;;
42168;SDS011;27838;43.858;25.974;2024-02-15T13:47:49;7.72;;;4.93;;
42168;SDS011;27838;43.858;25.974;2024-02-15T13:50:18;6.63;;;4.90;;
42168;SDS011;27838;43.858;25.974;2024-02-15T13:52:45;7.97;;;4.90;;
42168;SDS011;27838;43.858;25.974;2024-02-15T13:57:40;7.57;;;4.82;;
42168;SDS011;27838;43.858;25.974;2024-02-15T14:00:09;9.55;;;5.30;;
42168;SDS011;27838;43.858;25.974;2024-02-15T14:02:46;6.82;;;5.00;;
42168;SDS011;27838;43.858;25.974;2024-02-15T14:05:19;11.48;;;4.78;;
42168;SDS011;27838;43.858;25.974;2024-02-15T14:07:50;7.57;;;5.22;;
42168;SDS011;27838;43.858;25.974;2024-02-15T14:10:19;24.80;;;6.55;;
42168;SDS011;27838;43.858;25.974;2024-02-15T14:12:49;9.38;;;5.30;;
42168;SDS011;27838;43.858;25.974;2024-02-15T14:15:17;8.52;;;5.47;;
42168;SDS011;27838;43.858;25.974;2024-02-15T14:17:45;9.73;;;5.63;;
42168;SDS011;27838;43.858;25.974;2024-02-15T14:20:11;10.82;;;5.00;;
42168;SDS011;27838;43.858;25.974;2024-02-15T14:22:40;9.10;;;4.88;;
42168;SDS011;27838;43.858;25.974;2024-02-15T14:25:07;9.27;;;5.50;;
42168;SDS011;27838;43.858;25.974;2024-02-15T14:27:34;13.77;;;5.05;;
42168;SDS011;27838;43.858;25.974;2024-02-15T14:30:01;7.63;;;4.97;;
42168;SDS011;27838;43.858;25.974;2024-02-15T14:32:45;10.60;;;4.97;;
42168;SDS011;27838;43.858;25.974;2024-02-15T14:35:32;14.30;;;5.63;;
42168;SDS011;27838;43.858;25.974;2024-02-15T14:38:04;7.72;;;5.15;;
42168;SDS011;27838;43.858;25.974;2024-02-15T14:40:36;14.20;;;5.03;;
42168;SDS011;27838;43.858;25.974;2024-02-15T14:43:09;14.93;;;4.57;;
42168;SDS011;27838;43.858;25.974;2024-02-15T14:45:37;18.52;;;6.13;;
42168;SDS011;27838;43.858;25.974;2024-02-15T14:48:06;8.10;;;5.63;;
42168;SDS011;27838;43.858;25.974;2024-02-15T14:50:35;16.58;;;4.60;;
42168;SDS011;27838;43.858;25.974;2024-02-15T14:53:05;17.48;;;5.00;;
42168;SDS011;27838;43.858;25.974;2024-02-15T14:55:33;18.38;;;5.65;;